createdAt,value
2023-11-25T00:01:40.626Z,45.48
2023-11-25T00:04:09.053Z,46.22
2023-11-25T00:06:37.888Z,45.23
2023-11-25T00:09:07.476Z,45.29
2023-11-25T00:11:35.043Z,45.70
2023-11-25T00:14:02.562Z,45.62
2023-11-25T00:16:31.717Z,45.45
2023-11-25T00:18:59.323Z,45.66
2023-11-25T00:21:26.970Z,46.16
2023-11-25T00:23:54.606Z,46.76
2023-11-25T00:26:25.173Z,46.08
2023-11-25T00:28:58.971Z,46.07
2023-11-25T00:31:26.842Z,45.94
2023-11-25T00:33:54.542Z,45.99
2023-11-25T00:36:22.227Z,45.90
2023-11-25T00:38:49.825Z,46.47
2023-11-25T00:41:17.390Z,46.30
2023-11-25T00:43:46.335Z,46.14
2023-11-25T00:46:14.014Z,46.62
2023-11-25T00:48:44.256Z,46.37
2023-11-25T00:51:11.959Z,46.69
2023-11-25T00:53:39.505Z,46.77
2023-11-25T00:56:07.805Z,46.37
2023-11-25T00:58:35.572Z,46.84
2023-11-25T01:01:05.233Z,46.64
2023-11-25T01:03:33.749Z,46.39
2023-11-25T01:06:01.807Z,46.49
2023-11-25T01:08:30.436Z,46.51
2023-11-25T01:10:58.380Z,46.71
2023-11-25T01:13:26.211Z,46.42
2023-11-25T01:15:54.069Z,46.09
2023-11-25T01:18:23.439Z,46.16
2023-11-25T01:20:56.123Z,46.16
2023-11-25T01:23:26.362Z,46.04
2023-11-25T01:25:54.086Z,46.34
2023-11-25T01:28:22.441Z,46.52
2023-11-25T01:30:50.264Z,46.13
2023-11-25T01:33:17.908Z,46.65
2023-11-25T01:35:48.574Z,46.52
2023-11-25T01:38:16.233Z,45.87
2023-11-25T01:40:43.923Z,45.88
2023-11-25T01:43:12.721Z,45.95
2023-11-25T01:45:42.634Z,46.28
2023-11-25T01:48:10.587Z,46.37
2023-11-25T01:50:39.697Z,46.09
2023-11-25T01:53:08.971Z,46.21
2023-11-25T01:55:36.622Z,45.48
2023-11-25T01:58:04.354Z,46.06
2023-11-25T02:00:32.081Z,46.31
2023-11-25T02:02:59.812Z,46.17
2023-11-25T02:05:28.589Z,46.72
2023-11-25T02:07:56.809Z,46.35
2023-11-25T02:10:26.082Z,46.46
2023-11-25T02:12:53.634Z,46.28
2023-11-25T02:15:21.422Z,46.38
2023-11-25T02:17:49.016Z,45.94
2023-11-25T02:20:31.639Z,45.99
2023-11-25T02:23:00.895Z,46.66
2023-11-25T02:25:28.706Z,45.90
2023-11-25T02:27:57.165Z,46.62
2023-11-25T02:30:25.408Z,46.50
2023-11-25T02:32:53.005Z,45.60
2023-11-25T02:35:21.775Z,45.76
2023-11-25T02:37:51.056Z,46.16
2023-11-25T02:40:20.044Z,46.15
2023-11-25T02:42:49.132Z,45.56
2023-11-25T02:45:23.730Z,45.50
2023-11-25T02:47:52.123Z,46.20
2023-11-25T02:50:20.645Z,45.31
2023-11-25T02:52:48.336Z,46.28
2023-11-25T02:55:17.212Z,45.59
2023-11-25T02:57:48.162Z,45.27
2023-11-25T03:00:29.065Z,45.72
2023-11-25T03:03:10.471Z,46.14
2023-11-25T03:05:39.116Z,45.81
2023-11-25T03:08:11.402Z,45.56
2023-11-25T03:10:41.271Z,45.65
2023-11-25T03:13:11.014Z,45.35
2023-11-25T03:15:38.791Z,45.91
2023-11-25T03:18:07.563Z,46.32
2023-11-25T03:20:35.752Z,45.46
2023-11-25T03:23:04.267Z,45.44
2023-11-25T03:25:32.968Z,46.32
2023-11-25T03:28:05.549Z,45.44
2023-11-25T03:30:34.576Z,45.64
2023-11-25T03:33:02.215Z,45.32
2023-11-25T03:35:29.878Z,46.07
2023-11-25T03:37:57.594Z,45.56
2023-11-25T03:40:25.149Z,45.89
2023-11-25T03:42:52.719Z,45.50
2023-11-25T03:45:20.245Z,45.62
2023-11-25T03:47:52.154Z,46.17
2023-11-25T03:50:19.916Z,45.90
2023-11-25T03:52:47.920Z,45.35
2023-11-25T03:55:15.750Z,45.45
2023-11-25T03:57:44.388Z,45.74
2023-11-25T04:00:16.894Z,45.65
2023-11-25T04:02:45.751Z,45.72
2023-11-25T04:05:15.381Z,46.05
2023-11-25T04:07:42.945Z,45.77
2023-11-25T04:10:15.017Z,46.17
2023-11-25T04:12:43.096Z,45.90
2023-11-25T04:15:12.355Z,46.45
2023-11-25T04:17:40.676Z,46.00
2023-11-25T04:20:15.428Z,45.60
2023-11-25T04:22:45.375Z,45.73
2023-11-25T04:25:16.126Z,45.56
2023-11-25T04:27:44.847Z,45.95
2023-11-25T04:30:13.329Z,45.73
2023-11-25T04:32:43.321Z,46.19
2023-11-25T04:35:11.655Z,45.43
2023-11-25T04:37:39.713Z,45.74
2023-11-25T04:40:12.738Z,45.33
2023-11-25T04:42:41.255Z,45.35
2023-11-25T04:45:16.579Z,46.21
2023-11-25T04:47:46.355Z,45.82
2023-11-25T04:50:14.417Z,46.42
2023-11-25T04:52:42.229Z,45.77
2023-11-25T04:55:13.322Z,46.12
2023-11-25T04:57:41.212Z,46.30
2023-11-25T05:00:12.167Z,45.73
2023-11-25T05:02:40.559Z,46.00
2023-11-25T05:05:08.964Z,45.96
2023-11-25T05:07:36.976Z,46.29
2023-11-25T05:10:05.883Z,46.29
2023-11-25T05:12:34.834Z,46.18
2023-11-25T05:15:02.476Z,46.25
2023-11-25T05:17:30.266Z,46.01
2023-11-25T05:19:57.840Z,46.60
2023-11-25T05:22:28.610Z,45.84
2023-11-25T05:24:56.305Z,46.23
2023-11-25T05:27:24.364Z,46.27
2023-11-25T05:29:53.316Z,46.03
2023-11-25T05:32:20.973Z,46.42
2023-11-25T05:34:48.515Z,45.69
2023-11-25T05:37:16.025Z,45.71
2023-11-25T05:39:44.376Z,45.84
2023-11-25T05:42:14.142Z,45.92
2023-11-25T05:44:41.661Z,46.01
2023-11-25T05:47:10.766Z,46.20
2023-11-25T05:49:38.377Z,45.65
2023-11-25T05:52:06.120Z,45.69
2023-11-25T05:54:33.660Z,45.88
2023-11-25T05:57:01.204Z,45.93
2023-11-25T05:59:28.725Z,46.01
2023-11-25T06:01:56.277Z,46.18
2023-11-25T06:04:25.298Z,46.42
2023-11-25T06:06:53.163Z,45.70
2023-11-25T06:09:20.793Z,46.06
2023-11-25T06:11:52.148Z,45.60
2023-11-25T06:14:21.635Z,45.65
2023-11-25T06:16:49.866Z,46.17
2023-11-25T06:19:19.085Z,45.86
2023-11-25T06:21:48.576Z,45.99
2023-11-25T06:24:17.287Z,46.53
2023-11-25T06:26:45.428Z,45.71
2023-11-25T06:29:13.057Z,45.82
2023-11-25T06:31:45.057Z,46.38
2023-11-25T06:34:13.256Z,46.16
2023-11-25T06:36:42.762Z,45.52
2023-11-25T06:39:14.927Z,45.49
2023-11-25T06:41:45.535Z,45.58
2023-11-25T06:44:13.789Z,45.53
2023-11-25T06:46:41.653Z,46.40
2023-11-25T06:49:09.207Z,46.84
2023-11-25T06:51:37.039Z,46.56
2023-11-25T06:54:04.769Z,46.38
2023-11-25T06:56:35.137Z,46.05
2023-11-25T06:59:02.729Z,45.86
2023-11-25T11:06:55.625Z,40.94
2023-11-25T11:09:33.493Z,41.24
2023-11-25T11:15:14.948Z,40.75
2023-11-25T11:21:29.352Z,41.06
2023-11-25T11:24:06.843Z,41.08
2023-11-25T11:27:03.195Z,41.26
2023-11-25T11:29:42.347Z,41.49
2023-11-25T11:32:40.246Z,41.33
2023-11-25T11:36:03.349Z,41.37
2023-11-25T11:46:27.230Z,42.05
2023-11-25T11:53:49.979Z,42.26
2023-11-25T12:11:48.861Z,42.39
2023-11-25T12:17:39.915Z,43.00
2023-11-25T12:20:18.101Z,42.83
2023-11-25T12:22:49.379Z,42.78
2023-11-25T12:28:44.287Z,43.58
2023-11-25T12:34:28.886Z,43.62
2023-11-25T12:37:31.200Z,43.91
2023-11-25T12:40:34.073Z,44.07
2023-11-25T12:43:32.776Z,44.35
2023-11-25T12:46:34.766Z,44.65
2023-11-25T12:50:30.448Z,44.12
2023-11-25T12:54:25.861Z,44.07
2023-11-25T13:09:19.032Z,44.60
2023-11-25T13:15:35.150Z,44.79
2023-11-25T13:18:23.245Z,44.99
2023-11-25T13:21:03.475Z,45.00
2023-11-25T13:24:17.551Z,44.63
2023-11-25T13:28:01.483Z,44.74
2023-11-25T13:31:26.737Z,44.90
2023-11-25T13:34:23.609Z,44.78
2023-11-25T13:55:33.187Z,45.14
2023-11-25T13:58:55.982Z,44.99
2023-11-25T14:01:28.200Z,44.81
2023-11-25T14:07:38.615Z,44.68
2023-11-25T14:11:28.069Z,44.65
2023-11-25T14:14:32.827Z,45.10
2023-11-25T14:17:46.205Z,45.18
2023-11-25T14:25:02.913Z,44.52
2023-11-25T14:28:00.908Z,44.56
2023-11-25T14:30:54.533Z,44.99
2023-11-25T14:33:51.251Z,44.33
2023-11-25T15:04:26.944Z,44.50
2023-11-25T15:07:01.605Z,45.07
2023-11-25T15:09:29.571Z,44.93
2023-11-25T15:11:58.648Z,44.67
2023-11-25T15:14:26.410Z,44.95
2023-11-25T15:16:55.206Z,44.83
2023-11-25T15:19:22.795Z,45.11
2023-11-25T15:21:51.984Z,44.91
2023-11-25T15:24:21.629Z,44.99
2023-11-25T15:26:49.219Z,45.14
2023-11-25T15:29:19.065Z,44.98
2023-11-25T15:31:47.663Z,44.86
2023-11-25T15:34:17.768Z,45.11
2023-11-25T15:36:45.803Z,44.97
2023-11-25T15:39:17.688Z,44.82
2023-11-25T15:41:47.066Z,45.06
2023-11-25T15:44:14.857Z,45.09
2023-11-25T15:46:42.500Z,44.80
2023-11-25T15:49:10.525Z,45.29
2023-11-25T15:51:38.614Z,44.90
2023-11-25T15:54:06.410Z,45.08
2023-11-25T15:56:34.033Z,45.16
2023-11-25T15:59:04.856Z,45.65
2023-11-25T16:01:33.928Z,45.43
2023-11-25T16:04:01.961Z,45.40
2023-11-25T16:06:30.866Z,45.12
2023-11-25T16:08:58.644Z,45.74
2023-11-25T16:11:29.051Z,45.27
2023-11-25T16:13:56.944Z,45.65
2023-11-25T16:16:28.290Z,45.57
2023-11-25T16:18:55.852Z,44.97
2023-11-25T16:21:23.476Z,44.83
2023-11-25T16:23:52.019Z,45.23
2023-11-25T16:26:19.976Z,45.81
2023-11-25T16:28:47.585Z,45.50
2023-11-25T16:31:15.925Z,45.59
2023-11-25T16:33:44.832Z,45.06
2023-11-25T16:36:13.143Z,45.60
2023-11-25T16:38:41.293Z,44.50
2023-11-25T16:41:09.178Z,45.60
2023-11-25T16:43:49.535Z,45.23
2023-11-25T16:46:18.829Z,44.97
2023-11-25T16:48:53.559Z,45.27
2023-11-25T16:51:25.954Z,44.52
2023-11-25T16:53:53.459Z,45.09
2023-11-25T16:56:20.971Z,45.13
2023-11-25T16:58:48.770Z,45.29
2023-11-25T17:01:17.125Z,44.99
2023-11-25T17:03:48.663Z,45.14
2023-11-25T17:06:16.499Z,44.89
2023-11-25T17:08:46.197Z,44.63
2023-11-25T17:11:19.114Z,45.17
2023-11-25T17:13:50.317Z,45.12
2023-11-25T17:16:21.034Z,45.20
2023-11-25T17:19:00.199Z,44.80
2023-11-25T17:21:27.702Z,45.12
2023-11-25T17:24:02.533Z,44.02
2023-11-25T17:26:31.043Z,44.85
2023-11-25T17:28:58.880Z,44.53
2023-11-25T17:31:26.777Z,44.72
2023-11-25T17:34:01.863Z,44.41
2023-11-25T17:36:31.530Z,44.62
2023-11-25T17:38:59.799Z,45.11
2023-11-25T17:41:32.414Z,44.57
2023-11-25T17:44:00.335Z,44.66
2023-11-25T17:46:51.273Z,45.22
2023-11-25T17:49:20.592Z,44.42
2023-11-25T17:51:50.019Z,45.31
2023-11-25T17:54:20.331Z,44.95
2023-11-25T17:56:48.141Z,45.01
2023-11-25T17:59:20.659Z,44.43
2023-11-25T18:01:51.545Z,44.77
2023-11-25T18:04:23.803Z,44.99
2023-11-25T18:06:52.105Z,45.40
2023-11-25T18:09:22.584Z,45.20
2023-11-25T18:11:50.572Z,45.27
2023-11-25T18:14:18.558Z,45.27
2023-11-25T18:16:48.408Z,44.69
2023-11-25T18:19:19.262Z,44.81
2023-11-25T18:21:58.419Z,45.02
2023-11-25T18:24:26.073Z,44.86
2023-11-25T18:26:53.810Z,45.05
2023-11-25T18:29:21.700Z,45.29
2023-11-25T18:31:54.008Z,45.16
2023-11-25T18:34:21.812Z,45.61
2023-11-25T18:36:54.394Z,45.69
2023-11-25T18:39:25.177Z,45.61
2023-11-25T18:41:53.240Z,45.18
2023-11-25T18:44:22.240Z,44.91
2023-11-25T18:46:50.220Z,45.10
2023-11-25T18:49:18.037Z,44.79
2023-11-25T18:51:45.606Z,45.22
2023-11-25T18:54:14.513Z,44.93
2023-11-25T18:56:42.083Z,44.62
2023-11-25T18:59:09.809Z,44.66
2023-11-25T19:01:39.677Z,44.93
2023-11-25T19:04:07.892Z,45.36
2023-11-25T19:06:35.438Z,43.93
2023-11-25T19:09:03.067Z,44.17
2023-11-25T19:11:32.830Z,44.17
2023-11-25T19:14:01.395Z,43.92
2023-11-25T19:16:28.976Z,44.35
2023-11-25T19:18:56.590Z,44.50
2023-11-25T19:21:24.184Z,44.27
2023-11-25T19:23:51.758Z,43.78
2023-11-25T19:26:19.329Z,44.54
2023-11-25T19:28:49.304Z,44.12
2023-11-25T19:31:16.944Z,43.78
2023-11-25T19:33:46.828Z,44.00
2023-11-25T19:36:14.684Z,44.27
2023-11-25T19:38:42.227Z,43.67
2023-11-25T19:41:09.889Z,44.54
2023-11-25T19:43:37.496Z,43.54
2023-11-25T19:46:06.568Z,44.24
2023-11-25T19:48:37.026Z,43.53
2023-11-25T19:51:05.259Z,43.63
2023-11-25T19:53:49.420Z,43.85
2023-11-25T19:56:19.489Z,43.93
2023-11-25T19:58:47.287Z,43.39
2023-11-25T20:01:16.420Z,43.69
2023-11-25T20:03:44.049Z,43.80
2023-11-25T20:06:12.332Z,43.68
2023-11-25T20:08:39.870Z,43.29
2023-11-25T20:11:08.809Z,43.13
2023-11-25T20:13:36.546Z,43.89
2023-11-25T20:16:05.501Z,43.63
2023-11-25T20:18:34.443Z,43.49
2023-11-25T20:21:02.025Z,42.90
2023-11-25T20:23:29.561Z,43.12
2023-11-25T20:25:57.117Z,43.37
2023-11-25T20:28:24.757Z,42.99
2023-11-25T20:30:52.337Z,43.72
2023-11-25T20:33:19.921Z,43.06
2023-11-25T20:35:49.268Z,42.76
2023-11-25T20:38:16.890Z,42.91
2023-11-25T20:40:45.303Z,43.14
2023-11-25T20:43:13.596Z,42.70
2023-11-25T20:45:41.258Z,43.54
2023-11-25T20:48:09.543Z,43.44
2023-11-25T20:50:38.361Z,43.33
2023-11-25T20:53:08.029Z,43.14
2023-11-25T20:55:35.706Z,42.65
2023-11-25T20:58:03.334Z,42.96
2023-11-25T21:00:32.272Z,42.80
2023-11-25T21:03:00.232Z,43.04
2023-11-25T21:05:28.012Z,43.09
2023-11-25T21:07:55.609Z,43.29
2023-11-25T21:10:24.508Z,43.64
2023-11-25T21:12:52.140Z,42.65
2023-11-25T21:15:21.197Z,43.49
2023-11-25T21:17:49.292Z,43.42
2023-11-25T21:20:17.452Z,43.42
2023-11-25T21:22:45.033Z,42.89
2023-11-25T21:25:12.882Z,43.26
2023-11-25T21:27:42.166Z,43.07
2023-11-25T21:30:10.833Z,43.21
2023-11-25T21:32:41.541Z,43.54
2023-11-25T21:35:09.980Z,43.36
2023-11-25T21:37:38.101Z,43.63
2023-11-25T21:40:16.278Z,42.94
2023-11-25T21:42:49.703Z,43.11
2023-11-25T21:45:17.327Z,43.46
2023-11-25T21:47:44.899Z,43.12
2023-11-25T21:50:12.645Z,43.55
2023-11-25T21:52:40.378Z,42.81
2023-11-25T21:55:10.198Z,43.00
2023-11-25T21:57:38.404Z,42.95
2023-11-25T22:00:10.982Z,42.69
2023-11-25T22:02:41.594Z,42.69
2023-11-25T22:05:11.355Z,41.92
2023-11-25T22:07:39.532Z,42.31
2023-11-25T22:10:15.848Z,42.20
2023-11-25T22:12:49.657Z,41.98
2023-11-25T22:15:18.884Z,41.66
2023-11-25T22:17:48.397Z,42.00
2023-11-25T22:20:16.420Z,41.88
2023-11-25T22:22:43.974Z,41.56
2023-11-25T22:25:13.637Z,41.84
2023-11-25T22:27:42.220Z,41.78
2023-11-25T22:30:12.757Z,41.75
2023-11-25T22:32:41.776Z,41.47
2023-11-25T22:35:10.293Z,41.22
2023-11-25T22:37:38.362Z,41.02
2023-11-25T22:40:08.130Z,41.22
2023-11-25T22:42:36.685Z,41.64
2023-11-25T22:45:04.632Z,41.67
2023-11-25T22:47:32.172Z,41.23
2023-11-25T22:50:01.106Z,41.83
2023-11-25T22:52:30.142Z,41.51
2023-11-25T22:54:57.941Z,41.64
2023-11-25T22:57:25.479Z,41.58
2023-11-25T22:59:55.154Z,41.47
2023-11-25T23:02:24.099Z,41.87
2023-11-25T23:04:52.700Z,41.26
2023-11-25T23:07:21.879Z,41.71
2023-11-25T23:09:50.290Z,41.61
2023-11-25T23:12:17.999Z,40.80
2023-11-25T23:14:45.903Z,41.56
2023-11-25T23:17:13.764Z,41.61
2023-11-25T23:19:41.332Z,42.01
2023-11-25T23:22:09.089Z,41.48
2023-11-25T23:24:37.975Z,41.27
2023-11-25T23:27:09.421Z,41.02
2023-11-25T23:29:37.645Z,41.40
2023-11-25T23:32:05.870Z,41.51
2023-11-25T23:34:33.454Z,41.62
2023-11-25T23:37:01.074Z,41.38
2023-11-25T23:39:28.655Z,41.15
2023-11-25T23:41:57.841Z,41.30
2023-11-25T23:44:25.833Z,40.84
2023-11-25T23:46:53.362Z,40.67
2023-11-25T23:49:20.903Z,41.06
2023-11-25T23:51:48.383Z,41.48
2023-11-25T23:54:15.896Z,40.35
2023-11-25T23:56:44.393Z,40.86
2023-11-25T23:59:13.870Z,40.66
